sensor_id;sensor_type;location;lat;lon;timestamp;P1;durP1;ratioP1;P2;durP2;ratioP2
4424;SDS011;2225;53.568;13.266;2023-04-15T00:01:13;64.43;;;36.00;;
4424;SDS011;2225;53.568;13.266;2023-04-15T00:03:44;63.23;;;36.20;;
4424;SDS011;2225;53.568;13.266;2023-04-15T00:06:12;61.87;;;36.20;;
4424;SDS011;2225;53.568;13.266;2023-04-15T00:08:40;63.63;;;36.77;;
4424;SDS011;2225;53.568;13.266;2023-04-15T00:11:07;62.83;;;36.90;;
4424;SDS011;2225;53.568;13.266;2023-04-15T00:13:34;53.60;;;34.17;;
4424;SDS011;2225;53.568;13.266;2023-04-15T00:16:01;67.03;;;35.93;;
4424;SDS011;2225;53.568;13.266;2023-04-15T00:18:28;57.77;;;34.60;;
4424;SDS011;2225;53.568;13.266;2023-04-15T00:20:55;67.63;;;35.50;;
4424;SDS011;2225;53.568;13.266;2023-04-15T00:23:22;50.27;;;33.33;;
4424;SDS011;2225;53.568;13.266;2023-04-15T00:25:49;57.73;;;32.20;;
4424;SDS011;2225;53.568;13.266;2023-04-15T00:28:17;64.00;;;34.70;;
4424;SDS011;2225;53.568;13.266;2023-04-15T00:30:44;64.70;;;35.00;;
4424;SDS011;2225;53.568;13.266;2023-04-15T00:33:14;54.23;;;32.50;;
4424;SDS011;2225;53.568;13.266;2023-04-15T00:35:45;78.70;;;33.27;;
4424;SDS011;2225;53.568;13.266;2023-04-15T00:38:12;60.07;;;36.20;;
4424;SDS011;2225;53.568;13.266;2023-04-15T00:40:40;57.77;;;33.57;;
4424;SDS011;2225;53.568;13.266;2023-04-15T00:43:07;60.83;;;36.30;;
4424;SDS011;2225;53.568;13.266;2023-04-15T00:45:34;59.60;;;35.07;;
4424;SDS011;2225;53.568;13.266;2023-04-15T00:48:01;60.43;;;35.70;;
4424;SDS011;2225;53.568;13.266;2023-04-15T00:50:29;56.97;;;34.63;;
4424;SDS011;2225;53.568;13.266;2023-04-15T00:52:56;61.07;;;35.77;;
4424;SDS011;2225;53.568;13.266;2023-04-15T00:55:23;64.40;;;34.23;;
4424;SDS011;2225;53.568;13.266;2023-04-15T00:57:50;68.10;;;37.43;;
4424;SDS011;2225;53.568;13.266;2023-04-15T01:00:17;60.10;;;35.63;;
4424;SDS011;2225;53.568;13.266;2023-04-15T01:02:45;62.37;;;36.57;;
4424;SDS011;2225;53.568;13.266;2023-04-15T01:05:13;56.60;;;36.67;;
4424;SDS011;2225;53.568;13.266;2023-04-15T01:07:42;55.03;;;34.60;;
4424;SDS011;2225;53.568;13.266;2023-04-15T01:10:09;82.77;;;34.20;;
4424;SDS011;2225;53.568;13.266;2023-04-15T01:12:36;55.27;;;34.03;;
4424;SDS011;2225;53.568;13.266;2023-04-15T01:15:05;60.40;;;32.90;;
4424;SDS011;2225;53.568;13.266;2023-04-15T01:17:33;55.57;;;33.50;;
4424;SDS011;2225;53.568;13.266;2023-04-15T01:20:00;57.50;;;35.30;;
4424;SDS011;2225;53.568;13.266;2023-04-15T01:22:28;56.70;;;31.60;;
4424;SDS011;2225;53.568;13.266;2023-04-15T01:25:00;58.23;;;35.60;;
4424;SDS011;2225;53.568;13.266;2023-04-15T01:27:36;55.13;;;33.30;;
4424;SDS011;2225;53.568;13.266;2023-04-15T01:30:06;60.60;;;35.00;;
4424;SDS011;2225;53.568;13.266;2023-04-15T01:32:35;53.53;;;33.47;;
4424;SDS011;2225;53.568;13.266;2023-04-15T01:35:02;54.07;;;32.33;;
4424;SDS011;2225;53.568;13.266;2023-04-15T01:37:29;58.23;;;34.97;;
4424;SDS011;2225;53.568;13.266;2023-04-15T01:39:56;64.67;;;34.67;;
4424;SDS011;2225;53.568;13.266;2023-04-15T01:42:23;60.27;;;35.13;;
4424;SDS011;2225;53.568;13.266;2023-04-15T01:44:50;57.60;;;34.40;;
4424;SDS011;2225;53.568;13.266;2023-04-15T01:47:17;58.90;;;31.20;;
4424;SDS011;2225;53.568;13.266;2023-04-15T01:49:44;55.37;;;31.97;;
4424;SDS011;2225;53.568;13.266;2023-04-15T01:52:11;61.70;;;32.53;;
4424;SDS011;2225;53.568;13.266;2023-04-15T01:54:38;65.73;;;34.20;;
4424;SDS011;2225;53.568;13.266;2023-04-15T01:57:06;58.70;;;34.00;;
4424;SDS011;2225;53.568;13.266;2023-04-15T01:59:33;56.63;;;31.73;;
4424;SDS011;2225;53.568;13.266;2023-04-15T02:02:00;65.33;;;35.67;;
4424;SDS011;2225;53.568;13.266;2023-04-15T02:04:27;57.70;;;34.53;;
4424;SDS011;2225;53.568;13.266;2023-04-15T02:06:58;57.17;;;34.63;;
4424;SDS011;2225;53.568;13.266;2023-04-15T02:09:25;52.17;;;32.87;;
4424;SDS011;2225;53.568;13.266;2023-04-15T02:11:52;52.77;;;31.30;;
4424;SDS011;2225;53.568;13.266;2023-04-15T02:14:19;52.47;;;33.40;;
4424;SDS011;2225;53.568;13.266;2023-04-15T02:16:46;51.80;;;31.67;;
4424;SDS011;2225;53.568;13.266;2023-04-15T02:19:14;61.60;;;33.83;;
4424;SDS011;2225;53.568;13.266;2023-04-15T02:21:41;51.07;;;30.63;;
4424;SDS011;2225;53.568;13.266;2023-04-15T02:24:08;55.50;;;31.27;;
4424;SDS011;2225;53.568;13.266;2023-04-15T02:26:39;50.17;;;30.17;;
4424;SDS011;2225;53.568;13.266;2023-04-15T02:29:06;51.43;;;30.03;;
4424;SDS011;2225;53.568;13.266;2023-04-15T02:31:33;51.90;;;30.63;;
4424;SDS011;2225;53.568;13.266;2023-04-15T02:34:05;61.07;;;31.00;;
4424;SDS011;2225;53.568;13.266;2023-04-15T02:36:33;48.40;;;29.40;;
4424;SDS011;2225;53.568;13.266;2023-04-15T02:39:00;52.23;;;28.97;;
4424;SDS011;2225;53.568;13.266;2023-04-15T02:41:28;41.40;;;27.50;;
4424;SDS011;2225;53.568;13.266;2023-04-15T02:43:56;64.90;;;30.43;;
4424;SDS011;2225;53.568;13.266;2023-04-15T02:46:23;76.03;;;30.37;;
4424;SDS011;2225;53.568;13.266;2023-04-15T02:48:50;59.50;;;30.80;;
4424;SDS011;2225;53.568;13.266;2023-04-15T02:51:20;79.57;;;27.67;;
4424;SDS011;2225;53.568;13.266;2023-04-15T02:53:48;56.53;;;28.67;;
4424;SDS011;2225;53.568;13.266;2023-04-15T02:56:15;57.53;;;28.57;;
4424;SDS011;2225;53.568;13.266;2023-04-15T02:58:44;89.03;;;27.47;;
4424;SDS011;2225;53.568;13.266;2023-04-15T03:01:11;67.23;;;27.90;;
4424;SDS011;2225;53.568;13.266;2023-04-15T03:03:39;74.00;;;25.13;;
4424;SDS011;2225;53.568;13.266;2023-04-15T03:06:06;79.00;;;27.53;;
4424;SDS011;2225;53.568;13.266;2023-04-15T03:08:34;102.40;;;27.40;;
4424;SDS011;2225;53.568;13.266;2023-04-15T03:11:01;77.70;;;28.10;;
4424;SDS011;2225;53.568;13.266;2023-04-15T03:13:30;65.10;;;25.00;;
4424;SDS011;2225;53.568;13.266;2023-04-15T03:16:02;112.63;;;25.67;;
4424;SDS011;2225;53.568;13.266;2023-04-15T03:18:30;58.67;;;23.97;;
4424;SDS011;2225;53.568;13.266;2023-04-15T03:21:00;103.93;;;28.87;;
4424;SDS011;2225;53.568;13.266;2023-04-15T03:23:30;65.93;;;24.90;;
4424;SDS011;2225;53.568;13.266;2023-04-15T03:26:00;74.23;;;24.57;;
4424;SDS011;2225;53.568;13.266;2023-04-15T03:28:29;99.50;;;25.57;;
4424;SDS011;2225;53.568;13.266;2023-04-15T03:30:58;108.63;;;25.87;;
4424;SDS011;2225;53.568;13.266;2023-04-15T03:33:25;111.63;;;26.47;;
4424;SDS011;2225;53.568;13.266;2023-04-15T03:35:52;54.90;;;24.87;;
4424;SDS011;2225;53.568;13.266;2023-04-15T03:38:19;98.27;;;25.97;;
4424;SDS011;2225;53.568;13.266;2023-04-15T03:40:46;74.77;;;23.90;;
4424;SDS011;2225;53.568;13.266;2023-04-15T03:43:13;92.33;;;28.20;;
4424;SDS011;2225;53.568;13.266;2023-04-15T03:45:40;148.10;;;25.50;;
4424;SDS011;2225;53.568;13.266;2023-04-15T03:48:07;65.53;;;24.83;;
4424;SDS011;2225;53.568;13.266;2023-04-15T03:50:43;154.27;;;26.67;;
4424;SDS011;2225;53.568;13.266;2023-04-15T03:53:11;94.50;;;25.43;;
4424;SDS011;2225;53.568;13.266;2023-04-15T03:55:38;76.30;;;25.90;;
4424;SDS011;2225;53.568;13.266;2023-04-15T03:58:05;153.13;;;28.47;;
4424;SDS011;2225;53.568;13.266;2023-04-15T04:00:32;162.10;;;24.97;;
4424;SDS011;2225;53.568;13.266;2023-04-15T04:02:59;95.80;;;22.37;;
4424;SDS011;2225;53.568;13.266;2023-04-15T04:05:26;115.17;;;23.47;;
4424;SDS011;2225;53.568;13.266;2023-04-15T04:07:53;96.67;;;26.57;;
4424;SDS011;2225;53.568;13.266;2023-04-15T04:10:20;84.93;;;22.53;;
4424;SDS011;2225;53.568;13.266;2023-04-15T04:12:47;43.20;;;21.47;;
4424;SDS011;2225;53.568;13.266;2023-04-15T04:15:14;106.20;;;23.37;;
4424;SDS011;2225;53.568;13.266;2023-04-15T04:17:41;85.73;;;24.17;;
4424;SDS011;2225;53.568;13.266;2023-04-15T04:20:08;44.63;;;23.63;;
4424;SDS011;2225;53.568;13.266;2023-04-15T04:22:38;57.17;;;22.20;;
4424;SDS011;2225;53.568;13.266;2023-04-15T04:25:06;53.87;;;22.20;;
4424;SDS011;2225;53.568;13.266;2023-04-15T04:27:34;36.03;;;21.20;;
4424;SDS011;2225;53.568;13.266;2023-04-15T04:30:01;48.60;;;22.07;;
4424;SDS011;2225;53.568;13.266;2023-04-15T04:32:29;57.03;;;24.60;;
4424;SDS011;2225;53.568;13.266;2023-04-15T04:34:56;40.83;;;21.40;;
4424;SDS011;2225;53.568;13.266;2023-04-15T04:37:22;44.03;;;22.57;;
4424;SDS011;2225;53.568;13.266;2023-04-15T04:39:50;83.03;;;23.20;;
4424;SDS011;2225;53.568;13.266;2023-04-15T04:42:17;45.73;;;23.60;;
4424;SDS011;2225;53.568;13.266;2023-04-15T04:44:44;42.83;;;23.07;;
4424;SDS011;2225;53.568;13.266;2023-04-15T04:47:10;60.87;;;26.10;;
4424;SDS011;2225;53.568;13.266;2023-04-15T04:49:37;44.80;;;23.80;;
4424;SDS011;2225;53.568;13.266;2023-04-15T04:52:04;41.03;;;24.33;;
4424;SDS011;2225;53.568;13.266;2023-04-15T04:54:31;41.73;;;23.17;;
4424;SDS011;2225;53.568;13.266;2023-04-15T04:56:58;33.00;;;22.00;;
4424;SDS011;2225;53.568;13.266;2023-04-15T04:59:26;41.93;;;23.40;;
4424;SDS011;2225;53.568;13.266;2023-04-15T05:01:53;32.60;;;22.40;;
4424;SDS011;2225;53.568;13.266;2023-04-15T05:04:20;41.03;;;23.10;;
4424;SDS011;2225;53.568;13.266;2023-04-15T05:06:47;38.63;;;22.63;;
4424;SDS011;2225;53.568;13.266;2023-04-15T05:09:14;35.10;;;24.00;;
4424;SDS011;2225;53.568;13.266;2023-04-15T05:11:41;31.60;;;21.70;;
4424;SDS011;2225;53.568;13.266;2023-04-15T05:14:08;32.50;;;21.10;;
4424;SDS011;2225;53.568;13.266;2023-04-15T05:16:35;32.70;;;21.83;;
4424;SDS011;2225;53.568;13.266;2023-04-15T05:19:01;31.80;;;20.20;;
4424;SDS011;2225;53.568;13.266;2023-04-15T05:21:29;31.20;;;19.73;;
4424;SDS011;2225;53.568;13.266;2023-04-15T05:23:56;32.50;;;19.50;;
4424;SDS011;2225;53.568;13.266;2023-04-15T05:26:23;29.77;;;19.37;;
4424;SDS011;2225;53.568;13.266;2023-04-15T05:28:50;28.53;;;19.67;;
4424;SDS011;2225;53.568;13.266;2023-04-15T05:31:17;27.33;;;19.13;;
4424;SDS011;2225;53.568;13.266;2023-04-15T05:33:44;27.23;;;19.90;;
4424;SDS011;2225;53.568;13.266;2023-04-15T05:36:11;31.00;;;21.93;;
4424;SDS011;2225;53.568;13.266;2023-04-15T05:38:38;27.10;;;18.80;;
4424;SDS011;2225;53.568;13.266;2023-04-15T05:41:05;27.70;;;19.83;;
4424;SDS011;2225;53.568;13.266;2023-04-15T05:43:32;26.00;;;18.93;;
4424;SDS011;2225;53.568;13.266;2023-04-15T05:45:59;34.00;;;20.27;;
4424;SDS011;2225;53.568;13.266;2023-04-15T05:48:26;27.57;;;18.60;;
4424;SDS011;2225;53.568;13.266;2023-04-15T05:50:53;30.17;;;18.87;;
4424;SDS011;2225;53.568;13.266;2023-04-15T05:53:20;26.77;;;18.20;;
4424;SDS011;2225;53.568;13.266;2023-04-15T05:55:47;25.80;;;17.83;;
4424;SDS011;2225;53.568;13.266;2023-04-15T05:58:14;27.83;;;18.37;;
4424;SDS011;2225;53.568;13.266;2023-04-15T06:00:40;28.33;;;20.30;;
4424;SDS011;2225;53.568;13.266;2023-04-15T06:03:07;30.60;;;19.83;;
4424;SDS011;2225;53.568;13.266;2023-04-15T06:05:34;28.80;;;19.00;;
4424;SDS011;2225;53.568;13.266;2023-04-15T06:08:01;24.70;;;18.50;;
4424;SDS011;2225;53.568;13.266;2023-04-15T06:10:28;28.37;;;17.80;;
4424;SDS011;2225;53.568;13.266;2023-04-15T06:12:56;29.37;;;20.93;;
4424;SDS011;2225;53.568;13.266;2023-04-15T06:15:23;29.60;;;19.10;;
4424;SDS011;2225;53.568;13.266;2023-04-15T06:17:49;29.10;;;20.10;;
4424;SDS011;2225;53.568;13.266;2023-04-15T06:20:17;29.70;;;18.73;;
4424;SDS011;2225;53.568;13.266;2023-04-15T06:22:44;28.20;;;17.37;;
4424;SDS011;2225;53.568;13.266;2023-04-15T06:25:11;27.80;;;17.80;;
4424;SDS011;2225;53.568;13.266;2023-04-15T06:27:38;27.23;;;17.63;;
4424;SDS011;2225;53.568;13.266;2023-04-15T06:30:05;26.60;;;17.50;;
4424;SDS011;2225;53.568;13.266;2023-04-15T06:32:33;28.03;;;16.70;;
4424;SDS011;2225;53.568;13.266;2023-04-15T06:35:00;25.27;;;17.57;;
4424;SDS011;2225;53.568;13.266;2023-04-15T06:37:27;22.67;;;15.40;;
4424;SDS011;2225;53.568;13.266;2023-04-15T06:39:54;28.63;;;16.23;;
4424;SDS011;2225;53.568;13.266;2023-04-15T06:42:21;27.60;;;15.80;;
4424;SDS011;2225;53.568;13.266;2023-04-15T06:44:48;22.80;;;14.60;;
4424;SDS011;2225;53.568;13.266;2023-04-15T06:47:15;24.90;;;16.87;;
4424;SDS011;2225;53.568;13.266;2023-04-15T06:49:42;25.53;;;16.53;;
4424;SDS011;2225;53.568;13.266;2023-04-15T06:52:10;23.90;;;16.13;;
4424;SDS011;2225;53.568;13.266;2023-04-15T06:54:37;24.50;;;16.20;;
4424;SDS011;2225;53.568;13.266;2023-04-15T06:57:04;29.90;;;17.63;;
4424;SDS011;2225;53.568;13.266;2023-04-15T06:59:32;27.67;;;17.63;;
4424;SDS011;2225;53.568;13.266;2023-04-15T07:01:59;24.47;;;16.33;;
4424;SDS011;2225;53.568;13.266;2023-04-15T07:04:26;23.47;;;15.97;;
4424;SDS011;2225;53.568;13.266;2023-04-15T07:06:53;23.90;;;16.10;;
4424;SDS011;2225;53.568;13.266;2023-04-15T07:09:23;21.80;;;16.77;;
4424;SDS011;2225;53.568;13.266;2023-04-15T07:11:50;32.13;;;17.70;;
4424;SDS011;2225;53.568;13.266;2023-04-15T07:14:17;24.50;;;16.37;;
4424;SDS011;2225;53.568;13.266;2023-04-15T07:16:44;25.30;;;15.83;;
4424;SDS011;2225;53.568;13.266;2023-04-15T07:19:11;23.57;;;16.50;;
4424;SDS011;2225;53.568;13.266;2023-04-15T07:21:38;22.57;;;15.43;;
4424;SDS011;2225;53.568;13.266;2023-04-15T07:24:07;21.67;;;15.97;;
4424;SDS011;2225;53.568;13.266;2023-04-15T07:26:35;22.67;;;15.77;;
4424;SDS011;2225;53.568;13.266;2023-04-15T07:29:02;22.73;;;14.90;;
4424;SDS011;2225;53.568;13.266;2023-04-15T07:31:29;22.10;;;15.20;;
4424;SDS011;2225;53.568;13.266;2023-04-15T07:33:56;24.00;;;16.70;;
4424;SDS011;2225;53.568;13.266;2023-04-15T07:36:23;35.17;;;16.70;;
4424;SDS011;2225;53.568;13.266;2023-04-15T07:38:50;27.43;;;15.33;;
4424;SDS011;2225;53.568;13.266;2023-04-15T07:41:20;24.90;;;16.23;;
4424;SDS011;2225;53.568;13.266;2023-04-15T07:43:47;28.27;;;16.47;;
4424;SDS011;2225;53.568;13.266;2023-04-15T08:13:15;29.13;;;15.00;;
4424;SDS011;2225;53.568;13.266;2023-04-15T08:15:42;22.90;;;15.37;;
4424;SDS011;2225;53.568;13.266;2023-04-15T08:18:09;23.00;;;15.67;;
4424;SDS011;2225;53.568;13.266;2023-04-15T08:20:36;25.50;;;16.27;;
4424;SDS011;2225;53.568;13.266;2023-04-15T08:23:03;24.13;;;16.00;;
4424;SDS011;2225;53.568;13.266;2023-04-15T08:25:30;26.20;;;15.20;;
4424;SDS011;2225;53.568;13.266;2023-04-15T08:27:57;26.60;;;15.47;;
4424;SDS011;2225;53.568;13.266;2023-04-15T08:30:24;23.20;;;15.70;;
4424;SDS011;2225;53.568;13.266;2023-04-15T08:32:51;31.40;;;16.37;;
4424;SDS011;2225;53.568;13.266;2023-04-15T08:35:18;24.53;;;14.60;;
4424;SDS011;2225;53.568;13.266;2023-04-15T08:37:45;22.90;;;14.73;;
4424;SDS011;2225;53.568;13.266;2023-04-15T08:40:12;22.70;;;14.30;;
4424;SDS011;2225;53.568;13.266;2023-04-15T08:42:45;25.43;;;14.40;;
4424;SDS011;2225;53.568;13.266;2023-04-15T08:45:16;29.00;;;16.53;;
4424;SDS011;2225;53.568;13.266;2023-04-15T08:47:43;23.67;;;16.13;;
4424;SDS011;2225;53.568;13.266;2023-04-15T08:50:12;24.30;;;16.40;;
4424;SDS011;2225;53.568;13.266;2023-04-15T08:52:41;24.40;;;15.80;;
4424;SDS011;2225;53.568;13.266;2023-04-15T08:55:08;27.57;;;15.40;;
4424;SDS011;2225;53.568;13.266;2023-04-15T08:57:37;26.60;;;16.83;;
4424;SDS011;2225;53.568;13.266;2023-04-15T09:00:05;28.03;;;16.47;;
4424;SDS011;2225;53.568;13.266;2023-04-15T09:02:32;26.40;;;16.63;;
4424;SDS011;2225;53.568;13.266;2023-04-15T09:04:59;22.33;;;14.20;;
4424;SDS011;2225;53.568;13.266;2023-04-15T09:07:27;25.17;;;16.13;;
4424;SDS011;2225;53.568;13.266;2023-04-15T09:09:54;30.83;;;15.03;;
4424;SDS011;2225;53.568;13.266;2023-04-15T09:12:21;27.47;;;16.40;;
4424;SDS011;2225;53.568;13.266;2023-04-15T09:14:48;26.30;;;16.03;;
4424;SDS011;2225;53.568;13.266;2023-04-15T09:17:19;21.80;;;16.07;;
4424;SDS011;2225;53.568;13.266;2023-04-15T09:19:46;21.70;;;14.30;;
4424;SDS011;2225;53.568;13.266;2023-04-15T09:22:13;28.70;;;16.07;;
4424;SDS011;2225;53.568;13.266;2023-04-15T09:24:40;20.63;;;14.77;;
4424;SDS011;2225;53.568;13.266;2023-04-15T09:27:08;22.17;;;14.97;;
4424;SDS011;2225;53.568;13.266;2023-04-15T09:29:36;23.17;;;16.07;;
4424;SDS011;2225;53.568;13.266;2023-04-15T09:32:13;24.90;;;16.90;;
4424;SDS011;2225;53.568;13.266;2023-04-15T09:34:41;25.70;;;16.73;;
4424;SDS011;2225;53.568;13.266;2023-04-15T09:37:08;20.57;;;15.63;;
4424;SDS011;2225;53.568;13.266;2023-04-15T09:39:49;24.00;;;15.13;;
4424;SDS011;2225;53.568;13.266;2023-04-15T09:42:18;24.23;;;15.33;;
4424;SDS011;2225;53.568;13.266;2023-04-15T09:44:52;22.80;;;16.70;;
4424;SDS011;2225;53.568;13.266;2023-04-15T09:47:26;20.07;;;14.90;;
4424;SDS011;2225;53.568;13.266;2023-04-15T09:49:55;28.40;;;16.73;;
4424;SDS011;2225;53.568;13.266;2023-04-15T09:52:23;23.60;;;17.60;;
4424;SDS011;2225;53.568;13.266;2023-04-15T09:54:52;26.07;;;16.80;;
4424;SDS011;2225;53.568;13.266;2023-04-15T09:57:21;22.57;;;15.87;;
4424;SDS011;2225;53.568;13.266;2023-04-15T09:59:49;28.57;;;15.53;;
4424;SDS011;2225;53.568;13.266;2023-04-15T10:02:17;24.57;;;16.20;;
4424;SDS011;2225;53.568;13.266;2023-04-15T10:04:48;26.83;;;15.77;;
4424;SDS011;2225;53.568;13.266;2023-04-15T10:07:16;27.17;;;15.80;;
4424;SDS011;2225;53.568;13.266;2023-04-15T10:09:47;25.50;;;16.10;;
4424;SDS011;2225;53.568;13.266;2023-04-15T10:12:15;35.17;;;15.90;;
4424;SDS011;2225;53.568;13.266;2023-04-15T10:14:43;23.57;;;16.70;;
4424;SDS011;2225;53.568;13.266;2023-04-15T10:17:14;23.70;;;15.70;;
4424;SDS011;2225;53.568;13.266;2023-04-15T10:19:43;36.13;;;16.20;;
4424;SDS011;2225;53.568;13.266;2023-04-15T10:22:11;24.50;;;17.50;;
4424;SDS011;2225;53.568;13.266;2023-04-15T10:24:40;26.27;;;17.23;;
4424;SDS011;2225;53.568;13.266;2023-04-15T10:27:08;25.60;;;16.73;;
4424;SDS011;2225;53.568;13.266;2023-04-15T10:29:36;24.53;;;17.03;;
4424;SDS011;2225;53.568;13.266;2023-04-15T10:32:04;24.40;;;16.77;;
4424;SDS011;2225;53.568;13.266;2023-04-15T10:34:31;27.67;;;16.67;;
4424;SDS011;2225;53.568;13.266;2023-04-15T10:37:01;25.53;;;16.37;;
4424;SDS011;2225;53.568;13.266;2023-04-15T10:42:09;24.00;;;16.90;;
4424;SDS011;2225;53.568;13.266;2023-04-15T10:44:42;26.90;;;17.90;;
4424;SDS011;2225;53.568;13.266;2023-04-15T10:47:14;32.10;;;16.40;;
4424;SDS011;2225;53.568;13.266;2023-04-15T10:50:00;25.40;;;16.77;;
4424;SDS011;2225;53.568;13.266;2023-04-15T10:52:27;24.70;;;16.13;;
4424;SDS011;2225;53.568;13.266;2023-04-15T10:57:42;27.63;;;17.33;;
4424;SDS011;2225;53.568;13.266;2023-04-15T11:00:11;24.73;;;17.17;;
4424;SDS011;2225;53.568;13.266;2023-04-15T11:05:19;27.23;;;16.00;;
4424;SDS011;2225;53.568;13.266;2023-04-15T11:07:49;27.00;;;16.10;;
4424;SDS011;2225;53.568;13.266;2023-04-15T11:12:46;24.13;;;17.17;;
4424;SDS011;2225;53.568;13.266;2023-04-15T11:15:36;24.40;;;16.10;;
4424;SDS011;2225;53.568;13.266;2023-04-15T11:18:21;26.93;;;17.70;;
4424;SDS011;2225;53.568;13.266;2023-04-15T11:20:51;24.33;;;16.33;;
4424;SDS011;2225;53.568;13.266;2023-04-15T11:23:26;24.40;;;15.93;;
4424;SDS011;2225;53.568;13.266;2023-04-15T11:26:05;25.47;;;17.17;;
4424;SDS011;2225;53.568;13.266;2023-04-15T11:28:38;23.00;;;16.10;;
4424;SDS011;2225;53.568;13.266;2023-04-15T11:31:14;26.20;;;15.30;;
4424;SDS011;2225;53.568;13.266;2023-04-15T11:33:52;24.17;;;16.93;;
4424;SDS011;2225;53.568;13.266;2023-04-15T11:36:25;22.73;;;16.07;;
4424;SDS011;2225;53.568;13.266;2023-04-15T11:38:57;26.10;;;17.47;;
4424;SDS011;2225;53.568;13.266;2023-04-15T11:41:25;25.30;;;16.80;;
4424;SDS011;2225;53.568;13.266;2023-04-15T11:43:52;25.13;;;17.47;;
4424;SDS011;2225;53.568;13.266;2023-04-15T11:46:19;26.30;;;16.97;;
4424;SDS011;2225;53.568;13.266;2023-04-15T11:48:48;26.40;;;18.43;;
4424;SDS011;2225;53.568;13.266;2023-04-15T11:51:15;27.97;;;18.37;;
4424;SDS011;2225;53.568;13.266;2023-04-15T11:53:46;26.20;;;18.20;;
4424;SDS011;2225;53.568;13.266;2023-04-15T11:56:18;29.27;;;18.03;;
4424;SDS011;2225;53.568;13.266;2023-04-15T11:58:50;27.00;;;18.77;;
4424;SDS011;2225;53.568;13.266;2023-04-15T12:01:36;31.50;;;19.80;;
4424;SDS011;2225;53.568;13.266;2023-04-15T12:04:13;28.83;;;18.00;;
4424;SDS011;2225;53.568;13.266;2023-04-15T12:06:51;28.83;;;18.23;;
4424;SDS011;2225;53.568;13.266;2023-04-15T12:09:18;30.00;;;20.37;;
4424;SDS011;2225;53.568;13.266;2023-04-15T12:16:42;30.07;;;19.23;;
4424;SDS011;2225;53.568;13.266;2023-04-15T12:19:19;29.50;;;18.33;;
4424;SDS011;2225;53.568;13.266;2023-04-15T12:21:53;27.47;;;19.20;;
4424;SDS011;2225;53.568;13.266;2023-04-15T12:24:26;28.63;;;18.33;;
4424;SDS011;2225;53.568;13.266;2023-04-15T12:26:54;28.03;;;19.90;;
4424;SDS011;2225;53.568;13.266;2023-04-15T12:29:26;25.30;;;19.10;;
4424;SDS011;2225;53.568;13.266;2023-04-15T12:32:06;32.20;;;19.47;;
4424;SDS011;2225;53.568;13.266;2023-04-15T12:34:43;32.03;;;19.80;;
4424;SDS011;2225;53.568;13.266;2023-04-15T12:37:16;29.93;;;20.80;;
4424;SDS011;2225;53.568;13.266;2023-04-15T12:39:43;28.87;;;20.37;;
4424;SDS011;2225;53.568;13.266;2023-04-15T12:42:14;27.60;;;19.17;;
4424;SDS011;2225;53.568;13.266;2023-04-15T12:44:42;30.27;;;19.50;;
4424;SDS011;2225;53.568;13.266;2023-04-15T12:47:10;34.87;;;20.50;;
4424;SDS011;2225;53.568;13.266;2023-04-15T12:49:37;31.60;;;21.47;;
4424;SDS011;2225;53.568;13.266;2023-04-15T12:52:05;29.27;;;19.77;;
4424;SDS011;2225;53.568;13.266;2023-04-15T12:54:32;34.20;;;20.73;;
4424;SDS011;2225;53.568;13.266;2023-04-15T12:56:59;28.90;;;20.07;;
4424;SDS011;2225;53.568;13.266;2023-04-15T12:59:31;30.47;;;20.30;;
4424;SDS011;2225;53.568;13.266;2023-04-15T13:01:58;30.33;;;19.87;;
4424;SDS011;2225;53.568;13.266;2023-04-15T13:04:26;29.67;;;19.70;;
4424;SDS011;2225;53.568;13.266;2023-04-15T13:06:56;30.90;;;21.20;;
4424;SDS011;2225;53.568;13.266;2023-04-15T13:09:23;39.33;;;21.23;;
4424;SDS011;2225;53.568;13.266;2023-04-15T13:11:50;32.23;;;21.00;;
4424;SDS011;2225;53.568;13.266;2023-04-15T13:14:18;30.67;;;20.30;;
4424;SDS011;2225;53.568;13.266;2023-04-15T13:16:45;32.43;;;20.83;;
4424;SDS011;2225;53.568;13.266;2023-04-15T13:19:12;29.33;;;20.00;;
4424;SDS011;2225;53.568;13.266;2023-04-15T13:21:39;29.17;;;20.90;;
4424;SDS011;2225;53.568;13.266;2023-04-15T13:24:06;41.33;;;22.50;;
4424;SDS011;2225;53.568;13.266;2023-04-15T13:26:34;29.53;;;19.07;;
4424;SDS011;2225;53.568;13.266;2023-04-15T13:29:03;28.60;;;19.17;;
4424;SDS011;2225;53.568;13.266;2023-04-15T13:31:30;35.73;;;20.93;;
4424;SDS011;2225;53.568;13.266;2023-04-15T13:33:57;30.73;;;21.70;;
4424;SDS011;2225;53.568;13.266;2023-04-15T13:36:24;29.77;;;20.30;;
4424;SDS011;2225;53.568;13.266;2023-04-15T13:38:51;28.33;;;20.00;;
4424;SDS011;2225;53.568;13.266;2023-04-15T13:41:18;26.37;;;19.57;;
4424;SDS011;2225;53.568;13.266;2023-04-15T13:43:46;27.97;;;19.80;;
4424;SDS011;2225;53.568;13.266;2023-04-15T13:46:13;31.90;;;21.40;;
4424;SDS011;2225;53.568;13.266;2023-04-15T13:48:40;32.20;;;21.63;;
4424;SDS011;2225;53.568;13.266;2023-04-15T13:51:07;30.47;;;21.13;;
4424;SDS011;2225;53.568;13.266;2023-04-15T13:53:34;34.90;;;21.47;;
4424;SDS011;2225;53.568;13.266;2023-04-15T13:56:07;36.50;;;22.83;;
4424;SDS011;2225;53.568;13.266;2023-04-15T13:58:35;28.63;;;20.00;;
4424;SDS011;2225;53.568;13.266;2023-04-15T14:01:03;29.60;;;20.03;;
4424;SDS011;2225;53.568;13.266;2023-04-15T14:03:33;30.80;;;19.73;;
4424;SDS011;2225;53.568;13.266;2023-04-15T14:06:02;34.67;;;20.83;;
4424;SDS011;2225;53.568;13.266;2023-04-15T14:08:30;34.60;;;20.90;;
4424;SDS011;2225;53.568;13.266;2023-04-15T14:10:57;27.60;;;19.50;;
4424;SDS011;2225;53.568;13.266;2023-04-15T14:13:24;32.10;;;21.40;;
4424;SDS011;2225;53.568;13.266;2023-04-15T14:15:51;35.40;;;20.30;;
4424;SDS011;2225;53.568;13.266;2023-04-15T14:18:18;30.30;;;19.27;;
4424;SDS011;2225;53.568;13.266;2023-04-15T14:20:45;29.70;;;19.97;;
4424;SDS011;2225;53.568;13.266;2023-04-15T14:23:12;35.90;;;20.27;;
4424;SDS011;2225;53.568;13.266;2023-04-15T14:25:39;30.40;;;21.20;;
4424;SDS011;2225;53.568;13.266;2023-04-15T14:28:06;31.83;;;21.13;;
4424;SDS011;2225;53.568;13.266;2023-04-15T14:30:32;34.40;;;20.00;;
4424;SDS011;2225;53.568;13.266;2023-04-15T14:32:59;29.63;;;20.27;;
4424;SDS011;2225;53.568;13.266;2023-04-15T14:35:27;36.90;;;20.10;;
4424;SDS011;2225;53.568;13.266;2023-04-15T14:37:54;34.83;;;20.20;;
4424;SDS011;2225;53.568;13.266;2023-04-15T14:40:21;37.53;;;20.60;;
4424;SDS011;2225;53.568;13.266;2023-04-15T14:42:48;32.60;;;19.07;;
4424;SDS011;2225;53.568;13.266;2023-04-15T14:45:15;30.93;;;22.40;;
4424;SDS011;2225;53.568;13.266;2023-04-15T14:47:42;32.33;;;21.80;;
4424;SDS011;2225;53.568;13.266;2023-04-15T14:50:10;34.03;;;20.97;;
4424;SDS011;2225;53.568;13.266;2023-04-15T14:52:37;33.60;;;20.20;;
4424;SDS011;2225;53.568;13.266;2023-04-15T14:55:07;30.77;;;19.40;;
4424;SDS011;2225;53.568;13.266;2023-04-15T14:57:40;29.93;;;19.77;;
4424;SDS011;2225;53.568;13.266;2023-04-15T15:00:08;32.10;;;20.40;;
4424;SDS011;2225;53.568;13.266;2023-04-15T15:02:41;31.50;;;20.80;;
4424;SDS011;2225;53.568;13.266;2023-04-15T15:05:09;29.40;;;19.90;;
4424;SDS011;2225;53.568;13.266;2023-04-15T15:07:37;28.80;;;20.80;;
4424;SDS011;2225;53.568;13.266;2023-04-15T15:10:08;37.77;;;20.03;;
4424;SDS011;2225;53.568;13.266;2023-04-15T15:12:35;29.50;;;19.23;;
4424;SDS011;2225;53.568;13.266;2023-04-15T15:15:02;32.73;;;21.03;;
4424;SDS011;2225;53.568;13.266;2023-04-15T15:17:50;36.90;;;21.63;;
4424;SDS011;2225;53.568;13.266;2023-04-15T15:20:19;32.00;;;20.07;;
4424;SDS011;2225;53.568;13.266;2023-04-15T15:22:46;35.43;;;21.40;;